< < Back
Terminal Aerodrome Forecast


Current Version              Previous Versions:   1  2  3  4  5  6  7  8  9  

Terminal Aerodrome Forecast

792
FTUS42 KFFC 240500
TAFAHN
TAF
KAHN 240522Z 2406/2506 06005KT P6SM SKC
     FM241200 06010KT P6SM SKC
     FM241700 10008KT P6SM SCT060
     FM242000 15005KT P6SM SCT060
     FM250200 06004KT P6SM BKN060=



Latest METAR

118
SAUS70 KWBC 241100
MTRAHN
METAR KAHN 241051Z AUTO 06005KT 10SM CLR 11/01 A3002 RMK AO2 SLP164
T01060011


USA.gov is the U.S. government's official web portal to all federal, state and local government web resources and services.